sensor_id;sensor_type;location;lat;lon;timestamp;temperature;humidity
51655;DHT22;37732;53.106;7.030;2024-01-11T00:00:05;-5.60;99.90
51655;DHT22;37732;53.106;7.030;2024-01-11T00:02:31;-5.60;99.90
51655;DHT22;37732;53.106;7.030;2024-01-11T00:04:58;-4.60;99.90
51655;DHT22;37732;53.106;7.030;2024-01-11T00:07:24;-5.90;99.90
51655;DHT22;37732;53.106;7.030;2024-01-11T00:09:49;-4.80;99.90
51655;DHT22;37732;53.106;7.030;2024-01-11T00:12:15;-5.80;99.90
51655;DHT22;37732;53.106;7.030;2024-01-11T00:14:41;-5.50;99.90
51655;DHT22;37732;53.106;7.030;2024-01-11T00:17:06;-5.90;99.90
51655;DHT22;37732;53.106;7.030;2024-01-11T00:19:33;-5.60;99.90
51655;DHT22;37732;53.106;7.030;2024-01-11T00:22:00;-5.30;99.90
51655;DHT22;37732;53.106;7.030;2024-01-11T00:24:26;-5.80;99.90
51655;DHT22;37732;53.106;7.030;2024-01-11T00:26:52;-5.70;99.90
51655;DHT22;37732;53.106;7.030;2024-01-11T00:29:17;-5.90;99.90
51655;DHT22;37732;53.106;7.030;2024-01-11T00:31:43;-5.70;99.90
51655;DHT22;37732;53.106;7.030;2024-01-11T00:34:09;-5.90;99.90
51655;DHT22;37732;53.106;7.030;2024-01-11T00:36:34;-5.70;99.90
51655;DHT22;37732;53.106;7.030;2024-01-11T00:39:05;-5.90;99.90
51655;DHT22;37732;53.106;7.030;2024-01-11T00:41:30;-5.90;99.90
51655;DHT22;37732;53.106;7.030;2024-01-11T00:43:56;-6.00;99.90
51655;DHT22;37732;53.106;7.030;2024-01-11T00:46:22;-6.00;99.90
51655;DHT22;37732;53.106;7.030;2024-01-11T00:48:47;-5.80;99.90
51655;DHT22;37732;53.106;7.030;2024-01-11T00:51:13;-6.00;99.90
51655;DHT22;37732;53.106;7.030;2024-01-11T00:53:39;-6.00;99.90
51655;DHT22;37732;53.106;7.030;2024-01-11T00:56:05;-6.00;99.90
51655;DHT22;37732;53.106;7.030;2024-01-11T00:58:31;-5.80;99.90
51655;DHT22;37732;53.106;7.030;2024-01-11T01:00:56;-6.10;99.90
51655;DHT22;37732;53.106;7.030;2024-01-11T01:03:22;-5.90;99.90
51655;DHT22;37732;53.106;7.030;2024-01-11T01:05:48;-5.80;99.90
51655;DHT22;37732;53.106;7.030;2024-01-11T01:08:14;-5.90;99.90
51655;DHT22;37732;53.106;7.030;2024-01-11T01:10:40;-5.70;99.90
51655;DHT22;37732;53.106;7.030;2024-01-11T01:13:07;-6.10;99.90
51655;DHT22;37732;53.106;7.030;2024-01-11T01:15:33;-6.20;99.90
51655;DHT22;37732;53.106;7.030;2024-01-11T01:17:58;-5.90;99.90
51655;DHT22;37732;53.106;7.030;2024-01-11T01:20:24;-6.00;99.90
51655;DHT22;37732;53.106;7.030;2024-01-11T01:22:50;-6.20;99.90
51655;DHT22;37732;53.106;7.030;2024-01-11T01:25:19;-6.00;99.90
51655;DHT22;37732;53.106;7.030;2024-01-11T01:27:44;-6.10;99.90
51655;DHT22;37732;53.106;7.030;2024-01-11T01:30:10;-6.10;99.90
51655;DHT22;37732;53.106;7.030;2024-01-11T01:32:35;-5.50;99.90
51655;DHT22;37732;53.106;7.030;2024-01-11T01:35:01;-6.20;99.90
51655;DHT22;37732;53.106;7.030;2024-01-11T01:39:53;-6.00;99.90
51655;DHT22;37732;53.106;7.030;2024-01-11T01:42:20;-6.30;99.90
51655;DHT22;37732;53.106;7.030;2024-01-11T01:44:45;-6.10;99.90
51655;DHT22;37732;53.106;7.030;2024-01-11T01:47:11;-6.10;99.90
51655;DHT22;37732;53.106;7.030;2024-01-11T01:52:07;-5.80;99.90
51655;DHT22;37732;53.106;7.030;2024-01-11T01:54:33;-6.10;99.90
51655;DHT22;37732;53.106;7.030;2024-01-11T01:56:59;-6.10;99.90
51655;DHT22;37732;53.106;7.030;2024-01-11T01:59:27;-5.90;99.90
51655;DHT22;37732;53.106;7.030;2024-01-11T02:01:55;-6.00;99.90
51655;DHT22;37732;53.106;7.030;2024-01-11T02:04:20;-6.00;99.90
51655;DHT22;37732;53.106;7.030;2024-01-11T02:06:49;-6.10;99.90
51655;DHT22;37732;53.106;7.030;2024-01-11T02:09:16;-6.00;99.90
51655;DHT22;37732;53.106;7.030;2024-01-11T02:11:44;-6.00;99.90
51655;DHT22;37732;53.106;7.030;2024-01-11T02:14:11;-6.20;99.90
51655;DHT22;37732;53.106;7.030;2024-01-11T02:16:37;-6.10;99.90
51655;DHT22;37732;53.106;7.030;2024-01-11T02:19:04;-5.80;99.90
51655;DHT22;37732;53.106;7.030;2024-01-11T02:21:32;-5.90;99.90
51655;DHT22;37732;53.106;7.030;2024-01-11T02:24:06;-6.10;99.90
51655;DHT22;37732;53.106;7.030;2024-01-11T02:26:32;-6.00;99.90
51655;DHT22;37732;53.106;7.030;2024-01-11T02:28:58;-5.90;99.90
51655;DHT22;37732;53.106;7.030;2024-01-11T02:31:24;-5.80;99.90
51655;DHT22;37732;53.106;7.030;2024-01-11T02:33:52;-6.00;99.90
51655;DHT22;37732;53.106;7.030;2024-01-11T02:36:18;-6.00;99.90
51655;DHT22;37732;53.106;7.030;2024-01-11T02:38:44;-6.10;99.90
51655;DHT22;37732;53.106;7.030;2024-01-11T02:41:10;-6.00;99.90
51655;DHT22;37732;53.106;7.030;2024-01-11T02:43:36;-5.90;99.90
51655;DHT22;37732;53.106;7.030;2024-01-11T02:46:05;-5.60;99.90
51655;DHT22;37732;53.106;7.030;2024-01-11T02:48:31;-5.80;99.90
51655;DHT22;37732;53.106;7.030;2024-01-11T02:50:57;-6.00;99.90
51655;DHT22;37732;53.106;7.030;2024-01-11T02:53:23;-5.80;99.90
51655;DHT22;37732;53.106;7.030;2024-01-11T02:55:50;-5.80;99.90
51655;DHT22;37732;53.106;7.030;2024-01-11T02:58:16;-4.70;99.90
51655;DHT22;37732;53.106;7.030;2024-01-11T03:00:41;-5.80;99.90
51655;DHT22;37732;53.106;7.030;2024-01-11T03:03:07;-5.70;99.90
51655;DHT22;37732;53.106;7.030;2024-01-11T03:05:33;-5.80;99.90
51655;DHT22;37732;53.106;7.030;2024-01-11T03:07:58;-4.90;99.90
51655;DHT22;37732;53.106;7.030;2024-01-11T03:10:24;-5.40;99.90
51655;DHT22;37732;53.106;7.030;2024-01-11T03:12:50;-5.70;99.90
51655;DHT22;37732;53.106;7.030;2024-01-11T03:15:16;-5.80;99.90
51655;DHT22;37732;53.106;7.030;2024-01-11T03:17:41;-6.20;99.90
51655;DHT22;37732;53.106;7.030;2024-01-11T03:20:07;-5.60;99.90
51655;DHT22;37732;53.106;7.030;2024-01-11T03:22:33;-5.90;99.90
51655;DHT22;37732;53.106;7.030;2024-01-11T03:24:59;-5.90;99.90
51655;DHT22;37732;53.106;7.030;2024-01-11T03:27:25;-6.10;99.90
51655;DHT22;37732;53.106;7.030;2024-01-11T03:29:50;-4.80;99.90
51655;DHT22;37732;53.106;7.030;2024-01-11T03:32:16;-5.90;99.90
51655;DHT22;37732;53.106;7.030;2024-01-11T03:34:42;-5.60;99.90
51655;DHT22;37732;53.106;7.030;2024-01-11T03:37:08;-5.90;99.90
51655;DHT22;37732;53.106;7.030;2024-01-11T03:39:34;-5.70;99.90
51655;DHT22;37732;53.106;7.030;2024-01-11T03:42:00;-5.80;99.90
51655;DHT22;37732;53.106;7.030;2024-01-11T03:44:26;-5.90;99.90
51655;DHT22;37732;53.106;7.030;2024-01-11T03:46:52;-5.10;99.90
51655;DHT22;37732;53.106;7.030;2024-01-11T03:49:17;-5.80;99.90
51655;DHT22;37732;53.106;7.030;2024-01-11T03:51:43;-5.80;99.90
51655;DHT22;37732;53.106;7.030;2024-01-11T03:54:09;-6.00;99.90
51655;DHT22;37732;53.106;7.030;2024-01-11T03:56:38;-6.10;99.90
51655;DHT22;37732;53.106;7.030;2024-01-11T03:59:05;-5.80;99.90
51655;DHT22;37732;53.106;7.030;2024-01-11T04:01:32;-5.80;99.90
51655;DHT22;37732;53.106;7.030;2024-01-11T04:03:58;-5.60;99.90
51655;DHT22;37732;53.106;7.030;2024-01-11T04:06:24;-5.60;99.90
51655;DHT22;37732;53.106;7.030;2024-01-11T04:08:50;-5.60;99.90
51655;DHT22;37732;53.106;7.030;2024-01-11T04:11:16;-5.50;99.90
51655;DHT22;37732;53.106;7.030;2024-01-11T04:13:42;-5.70;99.90
51655;DHT22;37732;53.106;7.030;2024-01-11T04:16:08;-5.50;99.90
51655;DHT22;37732;53.106;7.030;2024-01-11T04:18:34;-5.50;99.90
51655;DHT22;37732;53.106;7.030;2024-01-11T04:21:01;-5.60;99.90
51655;DHT22;37732;53.106;7.030;2024-01-11T04:23:27;-4.50;99.90
51655;DHT22;37732;53.106;7.030;2024-01-11T04:25:52;-5.30;99.90
51655;DHT22;37732;53.106;7.030;2024-01-11T04:28:18;-5.60;99.90
51655;DHT22;37732;53.106;7.030;2024-01-11T04:30:44;-5.50;99.90
51655;DHT22;37732;53.106;7.030;2024-01-11T04:33:10;-5.30;99.90
51655;DHT22;37732;53.106;7.030;2024-01-11T04:35:36;-5.50;99.90
51655;DHT22;37732;53.106;7.030;2024-01-11T04:38:02;-5.10;99.90
51655;DHT22;37732;53.106;7.030;2024-01-11T04:40:28;-4.70;99.90
51655;DHT22;37732;53.106;7.030;2024-01-11T04:42:53;-4.90;99.90
51655;DHT22;37732;53.106;7.030;2024-01-11T04:45:19;-4.50;99.90
51655;DHT22;37732;53.106;7.030;2024-01-11T04:47:45;-4.80;99.90
51655;DHT22;37732;53.106;7.030;2024-01-11T04:50:11;-4.80;99.90
51655;DHT22;37732;53.106;7.030;2024-01-11T04:52:36;-4.50;99.90
51655;DHT22;37732;53.106;7.030;2024-01-11T04:55:02;-5.10;99.90
51655;DHT22;37732;53.106;7.030;2024-01-11T04:57:28;-4.50;99.90
51655;DHT22;37732;53.106;7.030;2024-01-11T04:59:53;-4.80;99.90
51655;DHT22;37732;53.106;7.030;2024-01-11T05:02:22;-4.70;99.90
51655;DHT22;37732;53.106;7.030;2024-01-11T05:04:48;-4.70;99.90
51655;DHT22;37732;53.106;7.030;2024-01-11T05:07:14;-3.80;99.90
51655;DHT22;37732;53.106;7.030;2024-01-11T05:09:39;-4.60;99.90
51655;DHT22;37732;53.106;7.030;2024-01-11T05:12:05;-4.40;99.90
51655;DHT22;37732;53.106;7.030;2024-01-11T05:14:31;-4.30;99.90
51655;DHT22;37732;53.106;7.030;2024-01-11T05:16:57;-4.40;99.90
51655;DHT22;37732;53.106;7.030;2024-01-11T05:19:23;-3.90;99.90
51655;DHT22;37732;53.106;7.030;2024-01-11T05:21:49;-3.60;99.90
51655;DHT22;37732;53.106;7.030;2024-01-11T05:24:14;-4.10;99.90
51655;DHT22;37732;53.106;7.030;2024-01-11T05:26:40;-4.10;99.90
51655;DHT22;37732;53.106;7.030;2024-01-11T05:29:07;-4.00;99.90
51655;DHT22;37732;53.106;7.030;2024-01-11T05:31:32;-4.00;99.90
51655;DHT22;37732;53.106;7.030;2024-01-11T05:33:58;-2.70;99.90
51655;DHT22;37732;53.106;7.030;2024-01-11T05:36:24;-3.70;99.90
51655;DHT22;37732;53.106;7.030;2024-01-11T05:38:50;-3.90;99.90
51655;DHT22;37732;53.106;7.030;2024-01-11T05:41:16;-3.70;99.90
51655;DHT22;37732;53.106;7.030;2024-01-11T05:43:42;-3.90;99.90
51655;DHT22;37732;53.106;7.030;2024-01-11T05:46:08;-3.20;99.90
51655;DHT22;37732;53.106;7.030;2024-01-11T05:48:34;-2.50;99.90
51655;DHT22;37732;53.106;7.030;2024-01-11T05:51:00;-2.80;99.90
51655;DHT22;37732;53.106;7.030;2024-01-11T05:53:26;-3.00;99.90
51655;DHT22;37732;53.106;7.030;2024-01-11T05:55:53;-2.20;99.90
51655;DHT22;37732;53.106;7.030;2024-01-11T05:58:19;-3.10;99.90
51655;DHT22;37732;53.106;7.030;2024-01-11T06:00:45;-3.20;99.90
51655;DHT22;37732;53.106;7.030;2024-01-11T06:03:14;-2.30;99.90
51655;DHT22;37732;53.106;7.030;2024-01-11T06:05:40;-3.40;99.90
51655;DHT22;37732;53.106;7.030;2024-01-11T06:08:06;-2.40;99.90
51655;DHT22;37732;53.106;7.030;2024-01-11T06:10:32;-3.20;99.90
51655;DHT22;37732;53.106;7.030;2024-01-11T06:12:58;-3.20;99.90
51655;DHT22;37732;53.106;7.030;2024-01-11T06:15:24;-3.20;99.90
51655;DHT22;37732;53.106;7.030;2024-01-11T06:17:49;-3.00;99.90
51655;DHT22;37732;53.106;7.030;2024-01-11T06:20:15;-3.10;99.90
51655;DHT22;37732;53.106;7.030;2024-01-11T06:22:41;-3.00;99.90
51655;DHT22;37732;53.106;7.030;2024-01-11T06:25:07;-2.90;99.90
51655;DHT22;37732;53.106;7.030;2024-01-11T06:27:33;-2.70;99.90
51655;DHT22;37732;53.106;7.030;2024-01-11T06:29:59;-2.10;99.90
51655;DHT22;37732;53.106;7.030;2024-01-11T06:32:24;-2.60;99.90
51655;DHT22;37732;53.106;7.030;2024-01-11T06:34:50;-2.80;99.90
51655;DHT22;37732;53.106;7.030;2024-01-11T06:37:16;-2.70;99.90
51655;DHT22;37732;53.106;7.030;2024-01-11T06:39:42;-2.50;99.90
51655;DHT22;37732;53.106;7.030;2024-01-11T06:42:08;-2.80;99.90
51655;DHT22;37732;53.106;7.030;2024-01-11T06:44:34;-2.00;99.90
51655;DHT22;37732;53.106;7.030;2024-01-11T06:46:59;-1.80;99.90
51655;DHT22;37732;53.106;7.030;2024-01-11T06:49:27;-2.40;99.90
51655;DHT22;37732;53.106;7.030;2024-01-11T06:51:52;-1.90;99.90
51655;DHT22;37732;53.106;7.030;2024-01-11T06:54:18;-2.50;99.90
51655;DHT22;37732;53.106;7.030;2024-01-11T06:56:44;-2.30;99.90
51655;DHT22;37732;53.106;7.030;2024-01-11T06:59:10;-2.30;99.90
51655;DHT22;37732;53.106;7.030;2024-01-11T07:01:35;-1.90;99.90
51655;DHT22;37732;53.106;7.030;2024-01-11T07:04:01;-1.60;99.90
51655;DHT22;37732;53.106;7.030;2024-01-11T07:06:27;-2.10;99.90
51655;DHT22;37732;53.106;7.030;2024-01-11T07:08:53;-2.50;99.90
51655;DHT22;37732;53.106;7.030;2024-01-11T07:11:18;-2.40;99.90
51655;DHT22;37732;53.106;7.030;2024-01-11T07:13:44;-1.90;99.90
51655;DHT22;37732;53.106;7.030;2024-01-11T07:16:10;-2.10;99.90
51655;DHT22;37732;53.106;7.030;2024-01-11T07:18:35;-1.90;99.90
51655;DHT22;37732;53.106;7.030;2024-01-11T07:21:01;-2.40;99.90
51655;DHT22;37732;53.106;7.030;2024-01-11T07:23:27;-2.10;99.90
51655;DHT22;37732;53.106;7.030;2024-01-11T09:01:14;-0.20;99.90
51655;DHT22;37732;53.106;7.030;2024-01-11T09:03:40;-0.20;99.90
51655;DHT22;37732;53.106;7.030;2024-01-11T09:06:06;-0.80;99.90
51655;DHT22;37732;53.106;7.030;2024-01-11T09:08:32;-0.60;99.90
51655;DHT22;37732;53.106;7.030;2024-01-11T09:10:58;-0.70;99.90
51655;DHT22;37732;53.106;7.030;2024-01-11T09:13:25;-0.80;99.90
51655;DHT22;37732;53.106;7.030;2024-01-11T09:15:54;-0.20;99.90
51655;DHT22;37732;53.106;7.030;2024-01-11T09:18:20;-0.60;99.90
51655;DHT22;37732;53.106;7.030;2024-01-11T09:20:46;-0.70;99.90
51655;DHT22;37732;53.106;7.030;2024-01-11T09:23:12;-0.50;99.90
51655;DHT22;37732;53.106;7.030;2024-01-11T09:25:38;-0.60;99.90
51655;DHT22;37732;53.106;7.030;2024-01-11T09:28:04;-0.50;99.90
51655;DHT22;37732;53.106;7.030;2024-01-11T09:30:30;-1.00;99.90
51655;DHT22;37732;53.106;7.030;2024-01-11T09:32:56;1.20;99.90
51655;DHT22;37732;53.106;7.030;2024-01-11T09:35:22;-0.40;99.90
51655;DHT22;37732;53.106;7.030;2024-01-11T09:37:49;-0.20;99.90
51655;DHT22;37732;53.106;7.030;2024-01-11T09:40:15;-0.40;99.90
51655;DHT22;37732;53.106;7.030;2024-01-11T09:42:42;0.60;99.90
51655;DHT22;37732;53.106;7.030;2024-01-11T09:45:13;0.20;99.90
51655;DHT22;37732;53.106;7.030;2024-01-11T09:47:41;-0.10;99.90
51655;DHT22;37732;53.106;7.030;2024-01-11T09:50:07;0.90;99.90
51655;DHT22;37732;53.106;7.030;2024-01-11T09:52:33;-0.10;99.90
51655;DHT22;37732;53.106;7.030;2024-01-11T09:55:00;0.90;99.90
51655;DHT22;37732;53.106;7.030;2024-01-11T09:57:29;0.60;99.90
51655;DHT22;37732;53.106;7.030;2024-01-11T09:59:57;0.30;99.90
51655;DHT22;37732;53.106;7.030;2024-01-11T10:02:26;0.10;99.90
51655;DHT22;37732;53.106;7.030;2024-01-11T10:04:55;1.10;99.90
51655;DHT22;37732;53.106;7.030;2024-01-11T10:07:23;0.90;99.90
51655;DHT22;37732;53.106;7.030;2024-01-11T10:09:50;1.20;99.90
51655;DHT22;37732;53.106;7.030;2024-01-11T11:04:22;1.10;99.90
51655;DHT22;37732;53.106;7.030;2024-01-11T11:06:55;1.50;99.90
51655;DHT22;37732;53.106;7.030;2024-01-11T11:09:23;1.20;99.90
51655;DHT22;37732;53.106;7.030;2024-01-11T11:11:50;1.40;99.90
51655;DHT22;37732;53.106;7.030;2024-01-11T11:14:17;1.80;99.90
51655;DHT22;37732;53.106;7.030;2024-01-11T11:16:44;1.30;99.90
51655;DHT22;37732;53.106;7.030;2024-01-11T11:19:10;1.60;99.90
51655;DHT22;37732;53.106;7.030;2024-01-11T11:21:44;2.50;99.90
51655;DHT22;37732;53.106;7.030;2024-01-11T11:24:14;1.70;99.90
51655;DHT22;37732;53.106;7.030;2024-01-11T12:30:33;1.70;99.90
51655;DHT22;37732;53.106;7.030;2024-01-11T12:32:59;2.40;99.90
51655;DHT22;37732;53.106;7.030;2024-01-11T12:35:30;2.60;99.90
51655;DHT22;37732;53.106;7.030;2024-01-11T12:38:03;1.90;99.90
51655;DHT22;37732;53.106;7.030;2024-01-11T12:40:38;3.00;99.90
51655;DHT22;37732;53.106;7.030;2024-01-11T12:48:01;2.00;99.90
51655;DHT22;37732;53.106;7.030;2024-01-11T12:50:30;1.70;99.90
51655;DHT22;37732;53.106;7.030;2024-01-11T12:53:10;2.30;99.90
51655;DHT22;37732;53.106;7.030;2024-01-11T13:00:39;1.60;99.90
51655;DHT22;37732;53.106;7.030;2024-01-11T13:03:05;1.80;99.90
51655;DHT22;37732;53.106;7.030;2024-01-11T13:05:32;2.10;99.90
51655;DHT22;37732;53.106;7.030;2024-01-11T13:08:10;2.30;99.90
51655;DHT22;37732;53.106;7.030;2024-01-11T13:10:36;1.80;99.90
51655;DHT22;37732;53.106;7.030;2024-01-11T13:13:03;2.40;99.90
51655;DHT22;37732;53.106;7.030;2024-01-11T13:15:29;1.70;99.90
51655;DHT22;37732;53.106;7.030;2024-01-11T13:17:57;2.20;99.90
51655;DHT22;37732;53.106;7.030;2024-01-11T13:20:23;2.20;99.90
51655;DHT22;37732;53.106;7.030;2024-01-11T13:23:15;2.20;99.90
51655;DHT22;37732;53.106;7.030;2024-01-11T13:25:42;1.90;99.90
51655;DHT22;37732;53.106;7.030;2024-01-11T13:28:08;2.10;99.90
51655;DHT22;37732;53.106;7.030;2024-01-11T13:30:35;2.10;99.90
51655;DHT22;37732;53.106;7.030;2024-01-11T13:33:01;2.30;99.90
51655;DHT22;37732;53.106;7.030;2024-01-11T13:35:27;1.60;99.90
51655;DHT22;37732;53.106;7.030;2024-01-11T13:37:53;2.20;99.90
51655;DHT22;37732;53.106;7.030;2024-01-11T13:40:18;2.40;99.90
51655;DHT22;37732;53.106;7.030;2024-01-11T13:42:44;2.30;99.90
51655;DHT22;37732;53.106;7.030;2024-01-11T13:45:10;2.20;99.90
51655;DHT22;37732;53.106;7.030;2024-01-11T13:47:36;2.10;99.90
51655;DHT22;37732;53.106;7.030;2024-01-11T13:50:02;2.10;99.90
51655;DHT22;37732;53.106;7.030;2024-01-11T13:52:28;1.60;99.90
51655;DHT22;37732;53.106;7.030;2024-01-11T13:54:54;1.90;99.90
51655;DHT22;37732;53.106;7.030;2024-01-11T13:57:20;2.20;99.90
51655;DHT22;37732;53.106;7.030;2024-01-11T13:59:46;2.00;99.90
51655;DHT22;37732;53.106;7.030;2024-01-11T14:02:12;1.80;99.90
51655;DHT22;37732;53.106;7.030;2024-01-11T14:04:38;2.30;99.90
51655;DHT22;37732;53.106;7.030;2024-01-11T14:07:05;2.20;99.90
51655;DHT22;37732;53.106;7.030;2024-01-11T14:09:31;1.90;99.90
51655;DHT22;37732;53.106;7.030;2024-01-11T14:11:57;1.90;99.90
51655;DHT22;37732;53.106;7.030;2024-01-11T14:14:23;2.40;99.90
51655;DHT22;37732;53.106;7.030;2024-01-11T14:16:48;2.50;99.90
51655;DHT22;37732;53.106;7.030;2024-01-11T14:19:14;2.30;99.90
51655;DHT22;37732;53.106;7.030;2024-01-11T14:21:40;2.60;99.90
51655;DHT22;37732;53.106;7.030;2024-01-11T14:24:06;1.80;99.90
51655;DHT22;37732;53.106;7.030;2024-01-11T14:26:32;1.80;99.90
51655;DHT22;37732;53.106;7.030;2024-01-11T14:29:02;2.00;99.90
51655;DHT22;37732;53.106;7.030;2024-01-11T14:31:27;1.80;99.90
51655;DHT22;37732;53.106;7.030;2024-01-11T14:33:53;1.80;99.90
51655;DHT22;37732;53.106;7.030;2024-01-11T14:36:19;2.20;99.90
51655;DHT22;37732;53.106;7.030;2024-01-11T14:38:45;2.60;99.90
51655;DHT22;37732;53.106;7.030;2024-01-11T14:41:11;2.80;99.90
51655;DHT22;37732;53.106;7.030;2024-01-11T14:43:37;2.50;99.90
51655;DHT22;37732;53.106;7.030;2024-01-11T14:46:03;1.60;99.90
51655;DHT22;37732;53.106;7.030;2024-01-11T14:48:29;1.80;99.90
51655;DHT22;37732;53.106;7.030;2024-01-11T14:50:59;2.40;99.90
51655;DHT22;37732;53.106;7.030;2024-01-11T14:53:24;2.10;99.90
51655;DHT22;37732;53.106;7.030;2024-01-11T14:55:50;2.10;99.90
51655;DHT22;37732;53.106;7.030;2024-01-11T14:58:16;2.50;99.90
51655;DHT22;37732;53.106;7.030;2024-01-11T15:00:42;1.80;99.90
51655;DHT22;37732;53.106;7.030;2024-01-11T15:03:08;2.00;99.90
51655;DHT22;37732;53.106;7.030;2024-01-11T15:05:33;1.70;99.90
51655;DHT22;37732;53.106;7.030;2024-01-11T15:07:59;2.20;99.90
51655;DHT22;37732;53.106;7.030;2024-01-11T15:10:25;1.70;99.90
51655;DHT22;37732;53.106;7.030;2024-01-11T15:12:51;2.30;99.90
51655;DHT22;37732;53.106;7.030;2024-01-11T15:15:17;2.20;99.90
51655;DHT22;37732;53.106;7.030;2024-01-11T15:17:44;1.60;99.90
51655;DHT22;37732;53.106;7.030;2024-01-11T15:20:10;2.30;99.90
51655;DHT22;37732;53.106;7.030;2024-01-11T15:22:36;1.60;99.90
51655;DHT22;37732;53.106;7.030;2024-01-11T15:25:02;2.10;99.90
51655;DHT22;37732;53.106;7.030;2024-01-11T15:27:27;1.70;99.90
51655;DHT22;37732;53.106;7.030;2024-01-11T15:29:53;1.70;99.90
51655;DHT22;37732;53.106;7.030;2024-01-11T15:32:19;1.40;99.90
51655;DHT22;37732;53.106;7.030;2024-01-11T15:34:45;1.90;99.90
51655;DHT22;37732;53.106;7.030;2024-01-11T15:37:11;2.20;99.90
51655;DHT22;37732;53.106;7.030;2024-01-11T15:39:37;2.40;99.90
51655;DHT22;37732;53.106;7.030;2024-01-11T15:42:02;2.10;99.90
51655;DHT22;37732;53.106;7.030;2024-01-11T15:44:31;1.70;99.90
51655;DHT22;37732;53.106;7.030;2024-01-11T15:46:59;2.00;99.90
51655;DHT22;37732;53.106;7.030;2024-01-11T15:49:26;2.20;99.90
51655;DHT22;37732;53.106;7.030;2024-01-11T15:51:52;2.40;99.90
51655;DHT22;37732;53.106;7.030;2024-01-11T15:54:18;2.20;99.90
51655;DHT22;37732;53.106;7.030;2024-01-11T15:56:45;2.60;99.90
51655;DHT22;37732;53.106;7.030;2024-01-11T15:59:11;2.40;99.90
51655;DHT22;37732;53.106;7.030;2024-01-11T16:01:38;1.60;99.90
51655;DHT22;37732;53.106;7.030;2024-01-11T16:04:04;2.10;99.90
51655;DHT22;37732;53.106;7.030;2024-01-11T16:06:30;2.10;99.90
51655;DHT22;37732;53.106;7.030;2024-01-11T16:08:56;1.90;99.90
51655;DHT22;37732;53.106;7.030;2024-01-11T16:11:22;2.10;99.90
51655;DHT22;37732;53.106;7.030;2024-01-11T16:13:48;1.90;99.90
51655;DHT22;37732;53.106;7.030;2024-01-11T16:16:15;1.70;99.90
51655;DHT22;37732;53.106;7.030;2024-01-11T16:18:40;2.30;99.90
51655;DHT22;37732;53.106;7.030;2024-01-11T16:21:07;2.40;99.90
51655;DHT22;37732;53.106;7.030;2024-01-11T16:23:34;2.50;99.90
51655;DHT22;37732;53.106;7.030;2024-01-11T16:26:00;2.20;99.90
51655;DHT22;37732;53.106;7.030;2024-01-11T16:28:26;2.10;99.90
51655;DHT22;37732;53.106;7.030;2024-01-11T16:30:52;2.00;99.90
51655;DHT22;37732;53.106;7.030;2024-01-11T16:33:19;2.00;99.90
51655;DHT22;37732;53.106;7.030;2024-01-11T16:35:45;2.60;99.90
51655;DHT22;37732;53.106;7.030;2024-01-11T16:38:12;1.90;99.90
51655;DHT22;37732;53.106;7.030;2024-01-11T16:40:40;2.50;99.90
51655;DHT22;37732;53.106;7.030;2024-01-11T16:43:07;2.60;99.90
51655;DHT22;37732;53.106;7.030;2024-01-11T16:45:36;2.60;99.90
51655;DHT22;37732;53.106;7.030;2024-01-11T16:48:02;2.10;99.90
51655;DHT22;37732;53.106;7.030;2024-01-11T16:50:32;2.00;99.90
51655;DHT22;37732;53.106;7.030;2024-01-11T16:52:58;2.10;99.90
51655;DHT22;37732;53.106;7.030;2024-01-11T16:55:24;2.10;99.90
51655;DHT22;37732;53.106;7.030;2024-01-11T16:57:49;2.60;99.90
51655;DHT22;37732;53.106;7.030;2024-01-11T17:00:15;2.80;99.90
51655;DHT22;37732;53.106;7.030;2024-01-11T17:02:42;1.60;99.90
51655;DHT22;37732;53.106;7.030;2024-01-11T17:05:08;1.80;99.90
51655;DHT22;37732;53.106;7.030;2024-01-11T17:07:34;1.70;99.90
51655;DHT22;37732;53.106;7.030;2024-01-11T17:09:59;2.30;99.90
51655;DHT22;37732;53.106;7.030;2024-01-11T17:12:25;2.50;99.90
51655;DHT22;37732;53.106;7.030;2024-01-11T17:14:50;2.40;99.90
51655;DHT22;37732;53.106;7.030;2024-01-11T17:17:16;2.40;99.90
51655;DHT22;37732;53.106;7.030;2024-01-11T17:19:42;2.00;99.90
51655;DHT22;37732;53.106;7.030;2024-01-11T17:22:08;2.20;99.90
51655;DHT22;37732;53.106;7.030;2024-01-11T17:24:33;2.10;99.90
51655;DHT22;37732;53.106;7.030;2024-01-11T17:26:59;1.90;99.90
51655;DHT22;37732;53.106;7.030;2024-01-11T17:29:30;1.60;99.90
51655;DHT22;37732;53.106;7.030;2024-01-11T17:31:56;2.00;99.90
51655;DHT22;37732;53.106;7.030;2024-01-11T17:34:22;2.50;99.90
51655;DHT22;37732;53.106;7.030;2024-01-11T17:36:48;1.60;99.90
51655;DHT22;37732;53.106;7.030;2024-01-11T17:39:13;2.20;99.90
51655;DHT22;37732;53.106;7.030;2024-01-11T17:41:39;1.90;99.90
51655;DHT22;37732;53.106;7.030;2024-01-11T17:44:08;1.60;99.90
51655;DHT22;37732;53.106;7.030;2024-01-11T17:46:34;1.90;99.90
51655;DHT22;37732;53.106;7.030;2024-01-11T17:48:59;1.90;99.90
51655;DHT22;37732;53.106;7.030;2024-01-11T17:51:25;2.20;99.90
51655;DHT22;37732;53.106;7.030;2024-01-11T17:53:51;2.20;99.90
51655;DHT22;37732;53.106;7.030;2024-01-11T17:56:18;2.30;99.90
51655;DHT22;37732;53.106;7.030;2024-01-11T17:58:46;1.80;99.90
51655;DHT22;37732;53.106;7.030;2024-01-11T18:01:23;2.10;99.90
51655;DHT22;37732;53.106;7.030;2024-01-11T18:03:49;1.40;99.90
51655;DHT22;37732;53.106;7.030;2024-01-11T18:06:15;1.60;99.90
51655;DHT22;37732;53.106;7.030;2024-01-11T18:08:41;2.20;99.90
51655;DHT22;37732;53.106;7.030;2024-01-11T18:11:10;2.20;99.90
51655;DHT22;37732;53.106;7.030;2024-01-11T18:13:36;2.10;99.90
51655;DHT22;37732;53.106;7.030;2024-01-11T18:16:03;2.10;99.90
51655;DHT22;37732;53.106;7.030;2024-01-11T18:18:29;1.60;99.90
51655;DHT22;37732;53.106;7.030;2024-01-11T18:20:55;2.10;99.90
51655;DHT22;37732;53.106;7.030;2024-01-11T18:23:21;1.60;99.90
51655;DHT22;37732;53.106;7.030;2024-01-11T18:25:46;2.10;99.90
51655;DHT22;37732;53.106;7.030;2024-01-11T18:28:12;2.00;99.90
51655;DHT22;37732;53.106;7.030;2024-01-11T18:30:38;1.60;99.90
51655;DHT22;37732;53.106;7.030;2024-01-11T18:33:04;1.70;99.90
51655;DHT22;37732;53.106;7.030;2024-01-11T18:35:31;1.20;99.90
51655;DHT22;37732;53.106;7.030;2024-01-11T18:37:57;1.70;99.90
51655;DHT22;37732;53.106;7.030;2024-01-11T18:40:23;1.90;99.90
51655;DHT22;37732;53.106;7.030;2024-01-11T18:42:50;1.60;99.90
51655;DHT22;37732;53.106;7.030;2024-01-11T18:45:15;2.10;99.90
51655;DHT22;37732;53.106;7.030;2024-01-11T18:47:41;1.80;99.90
51655;DHT22;37732;53.106;7.030;2024-01-11T18:50:07;1.50;99.90
51655;DHT22;37732;53.106;7.030;2024-01-11T18:52:34;1.50;99.90
51655;DHT22;37732;53.106;7.030;2024-01-11T18:55:02;1.60;99.90
51655;DHT22;37732;53.106;7.030;2024-01-11T18:57:27;1.50;99.90
51655;DHT22;37732;53.106;7.030;2024-01-11T18:59:53;1.90;99.90
51655;DHT22;37732;53.106;7.030;2024-01-11T19:02:23;2.40;99.90
51655;DHT22;37732;53.106;7.030;2024-01-11T19:04:48;1.40;99.90
51655;DHT22;37732;53.106;7.030;2024-01-11T19:07:14;1.50;99.90
51655;DHT22;37732;53.106;7.030;2024-01-11T19:09:40;1.90;99.90
51655;DHT22;37732;53.106;7.030;2024-01-11T19:12:06;1.40;99.90
51655;DHT22;37732;53.106;7.030;2024-01-11T19:14:32;1.40;99.90
51655;DHT22;37732;53.106;7.030;2024-01-11T19:17:00;1.90;99.90